Cyclone, Texas
Current Conditions -  °F | °C
As of 9:15 AM on Monday 24 Nov 2014 (Local Time) from KT35 Reporting Station
Clear Clear  
Wind Chill: 52°   Ceiling: Unl
Heat Index: 52°   Visibility: 10mi
Dew Point: 39°   Wind: 10mph
Humidity: 62%   Direction: 330°NNW
Pressure: 30.09"   Gusts: NA
Location:  30.9882°N, 97.103°W
Report Text: KT35 241515Z AUTO 33009KT 10SM CLR 11/04 A3009 RMK AO2 T01090038
Loading
Personal Weather Stations






























Interactive Weather Map New forecast layout! Learn more

10-Day Weather Forecast

Advertisements
Track Severe Weather on mobile